Thomson, Georgia
Current Conditions -  °F | °C
As of 7:15 PM on Wednesday 26 Nov 2014 (Local Time) from KHQU Reporting Station
Clear Clear  
Wind Chill: 42°   Ceiling: Unl
Heat Index: 45°   Visibility: 10mi
Dew Point: 38°   Wind: 6mph
Humidity: 75%   Direction: 240°WSW
Pressure: 30.13"   Gusts: NA
Location:  33.47°N, 82.5°W
Report Text: KHQU 270015Z AUTO 24005KT 10SM CLR 07/03 A3013 RMK AO1 T00740032
Loading
Personal Weather Stations






























Interactive Weather Map New forecast layout! Learn more

10-Day Weather Forecast

Advertisements
Track Severe Weather on mobile